Details for KLM (Royal Dutch Airlines) at EHAM




Go Back


Latest METAR
Local Time

EHAM 022225Z 28008KT 9999 FEW022 08/06 Q1010 NOSIG
03/04/2020, 00:44:07

Description
Results
KLM (Royal Dutch Airlines) Logo
Number of Pilots based at EHAM
2 Pilots Based here
Number of KLM (Royal Dutch Airlines) Flights Departed from EHAM
94 Flights Departed
Number of KLM (Royal Dutch Airlines) Flights Arrived at EHAM
97 Flights Arrived
Number of KLM (Royal Dutch Airlines) Schedules Departing from EHAM
296 Schedules
Number of KLM (Royal Dutch Airlines) Schedules Arriving at EHAM
305 Schedules
Number of KLM (Royal Dutch Airlines) Schedules Departing from EHAM availible today
200 Schedules Today
Number of KLM (Royal Dutch Airlines) Schedules Arriving at EHAM availible today
196 Schedules Today
Average Landing Rate at EHAM
-211 fpm
KLM (Royal Dutch Airlines) Average Landing Rate at EHAM
-218 fpm
Total Fuel Purchased at EHAM by KLM (Royal Dutch Airlines)
1,637,194.94 kgs / 3,609,359.96 lbs

Pilots Based at EHAM


Pilot ID
Pilot Name
Pilot Rank
No. of Flights
No. of Flying Hours
Youri Rutten
87
206.43
James Hatcher
169
779.06